Time;durP1;ratioP1;P1;durP2;ratioP2;P2;SDS_P1;SDS_P2;PMS_P1;PMS_P2;Temp;Humidity;BMP_temperature;BMP_pressure;BME280_temperature;BME280_humidity;BME280_pressure;Samples;Min_cycle;Max_cycle;Signal;HPM_P1;HPM_P2
2021/04/29 00:01:27;;;;;;;13.70;6.70;;;11.50;68.90;;;;;;5023505;28;20036;-77
2021/04/29 00:03:53;;;;;;;17.85;6.30;;;11.50;67.30;;;;;;5028956;28;20052;-77
2021/04/29 00:06:18;;;;;;;12.77;6.15;;;11.50;67.70;;;;;;5029357;28;20030;-76
2021/04/29 00:08:44;;;;;;;18.27;7.13;;;11.50;68.00;;;;;;5027418;28;20030;-77
2021/04/29 00:11:10;;;;;;;13.48;5.88;;;11.40;68.30;;;;;;5019893;28;20109;-77
2021/04/29 00:13:37;;;;;;;17.83;6.60;;;11.40;68.40;;;;;;5028713;28;20033;-77
2021/04/29 00:16:04;;;;;;;16.10;6.53;;;11.40;68.50;;;;;;5006679;28;20029;-77
2021/04/29 00:18:29;;;;;;;14.23;7.43;;;11.40;68.60;;;;;;5026780;28;20034;-76
2021/04/29 00:20:55;;;;;;;16.60;6.38;;;11.30;70.30;;;;;;5005867;28;20044;-77
2021/04/29 00:23:23;;;;;;;14.18;6.18;;;11.30;71.60;;;;;;5017697;28;20538;-76
2021/04/29 00:25:49;;;;;;;15.60;7.63;;;11.20;70.90;;;;;;5022669;28;20041;-77
2021/04/29 00:28:14;;;;;;;13.88;6.40;;;11.20;70.80;;;;;;5030344;28;20032;-76
2021/04/29 00:30:40;;;;;;;13.13;7.30;;;11.20;70.50;;;;;;5026080;28;20037;-77
2021/04/29 00:33:05;;;;;;;18.60;6.53;;;11.20;70.50;;;;;;5028773;28;20036;-76
2021/04/29 00:35:31;;;;;;;15.10;6.85;;;11.20;70.50;;;;;;5029687;28;20025;-76
2021/04/29 00:37:56;;;;;;;13.80;6.65;;;11.20;70.20;;;;;;5026421;28;20108;-76
2021/04/29 00:40:22;;;;;;;11.82;6.22;;;11.20;70.50;;;;;;5023767;28;20661;-76
2021/04/29 00:42:47;;;;;;;11.48;6.65;;;11.20;72.00;;;;;;5025769;28;20075;-77
2021/04/29 00:45:13;;;;;;;12.85;6.82;;;11.20;70.90;;;;;;5026556;28;20104;-76
2021/04/29 00:47:39;;;;;;;19.08;6.60;;;11.20;70.60;;;;;;5030893;28;20490;-77
2021/04/29 00:50:10;;;;;;;15.13;7.47;;;11.20;71.70;;;;;;5029382;28;20045;-76
2021/04/29 00:52:36;;;;;;;17.17;6.28;;;11.20;70.60;;;;;;5028304;28;20109;-76
2021/04/29 00:55:03;;;;;;;14.98;6.32;;;11.20;70.80;;;;;;5029494;28;20108;-76
2021/04/29 00:57:28;;;;;;;15.55;6.03;;;11.10;71.10;;;;;;5023220;28;20039;-76
2021/04/29 00:59:55;;;;;;;15.48;7.18;;;11.20;73.00;;;;;;5030608;28;20021;-77
2021/04/29 01:02:22;;;;;;;15.40;7.22;;;11.20;71.90;;;;;;5020906;28;20033;-76
2021/04/29 01:04:53;;;;;;;11.75;6.07;;;11.20;70.90;;;;;;5021835;28;20061;-76
2021/04/29 01:07:22;;;;;;;15.05;6.90;;;11.20;70.80;;;;;;5021909;28;20022;-76
2021/04/29 01:09:56;;;;;;;16.40;6.45;;;11.20;71.20;;;;;;5026921;28;20365;-76
2021/04/29 01:12:34;;;;;;;13.15;6.05;;;11.20;71.60;;;;;;5025749;28;20049;-76
2021/04/29 01:15:01;;;;;;;14.65;7.05;;;11.20;72.30;;;;;;5030255;28;20555;-77
2021/04/29 01:17:28;;;;;;;12.38;6.20;;;11.20;71.30;;;;;;5028659;28;20113;-76
2021/04/29 01:20:28;;;;;;;17.40;6.68;;;11.20;71.00;;;;;;5028627;28;20482;-77
2021/04/29 01:23:16;;;;;;;11.52;6.60;;;11.20;73.20;;;;;;4995139;28;20095;-76
2021/04/29 01:25:45;;;;;;;12.32;6.03;;;11.20;72.40;;;;;;5023629;28;20021;-77
2021/04/29 01:28:11;;;;;;;17.85;7.22;;;11.10;72.80;;;;;;5026446;28;20025;-76
2021/04/29 01:30:38;;;;;;;10.18;5.88;;;11.10;72.50;;;;;;5019763;28;20072;-77
2021/04/29 01:33:05;;;;;;;11.15;5.93;;;11.10;74.10;;;;;;5023847;28;20036;-77
2021/04/29 01:35:31;;;;;;;12.27;6.43;;;11.10;71.60;;;;;;5028827;28;20037;-76
2021/04/29 01:37:57;;;;;;;18.35;6.85;;;11.20;71.30;;;;;;5019155;28;20022;-76
2021/04/29 01:40:23;;;;;;;16.23;7.03;;;11.30;70.90;;;;;;5012979;28;20461;-76
2021/04/29 01:42:49;;;;;;;13.63;7.03;;;11.30;70.20;;;;;;5026608;28;20476;-76
2021/04/29 01:45:15;;;;;;;13.57;6.68;;;11.30;71.20;;;;;;4996426;28;20033;-76
2021/04/29 01:47:41;;;;;;;10.75;6.10;;;11.20;71.60;;;;;;5023080;28;20045;-77
2021/04/29 01:50:09;;;;;;;21.92;7.38;;;11.20;71.30;;;;;;5015942;28;20067;-77
2021/04/29 01:52:36;;;;;;;12.10;5.97;;;11.30;70.50;;;;;;5028210;28;20104;-76
2021/04/29 01:55:04;;;;;;;19.50;6.90;;;11.20;70.90;;;;;;5028913;28;20499;-77
2021/04/29 01:57:30;;;;;;;24.98;6.55;;;11.30;70.60;;;;;;5024167;28;20032;-77
2021/04/29 01:59:56;;;;;;;13.23;6.57;;;11.30;71.60;;;;;;5015702;28;20030;-76
2021/04/29 02:02:25;;;;;;;13.90;6.60;;;11.20;70.50;;;;;;5019075;28;20021;-77
2021/04/29 02:04:51;;;;;;;16.27;6.93;;;11.20;71.00;;;;;;5023728;28;20034;-76
2021/04/29 02:07:17;;;;;;;11.57;5.82;;;11.30;70.10;;;;;;5023470;28;20037;-77
2021/04/29 02:09:43;;;;;;;13.50;6.95;;;11.30;70.20;;;;;;5022832;28;20033;-76
2021/04/29 02:12:10;;;;;;;18.25;6.97;;;11.30;70.20;;;;;;5023862;28;20203;-76
2021/04/29 02:14:48;;;;;;;14.32;6.03;;;11.30;70.80;;;;;;5025582;28;20567;-77
2021/04/29 02:17:24;;;;;;;13.20;6.50;;;11.30;71.30;;;;;;5029023;28;20028;-76
2021/04/29 02:19:51;;;;;;;14.57;6.18;;;11.40;70.20;;;;;;5027728;28;20033;-76
2021/04/29 02:22:20;;;;;;;16.30;6.82;;;11.40;70.30;;;;;;5019379;28;20030;-77
2021/04/29 02:24:47;;;;;;;18.98;7.07;;;11.40;70.70;;;;;;5026348;28;20044;-77
2021/04/29 02:27:13;;;;;;;18.88;7.18;;;11.40;70.30;;;;;;5028644;28;20030;-76
2021/04/29 02:29:42;;;;;;;11.07;5.97;;;11.30;70.70;;;;;;5023023;28;20030;-76
2021/04/29 02:32:07;;;;;;;17.13;6.95;;;11.30;71.00;;;;;;5016239;28;20033;-76
2021/04/29 02:34:34;;;;;;;11.23;6.32;;;11.30;71.10;;;;;;5028254;28;20022;-76
2021/04/29 02:36:59;;;;;;;14.95;6.30;;;11.30;72.20;;;;;;5024921;28;20025;-77
2021/04/29 02:39:25;;;;;;;14.38;6.57;;;11.20;74.50;;;;;;5028353;28;20498;-76
2021/04/29 02:41:51;;;;;;;13.00;6.13;;;11.10;74.20;;;;;;5027050;28;20034;-77
2021/04/29 02:44:16;;;;;;;12.68;6.60;;;11.10;73.40;;;;;;5023897;28;20475;-76
2021/04/29 02:46:42;;;;;;;23.15;6.45;;;11.10;73.30;;;;;;5025637;28;20079;-77
2021/04/29 02:49:11;;;;;;;12.77;6.50;;;11.00;75.10;;;;;;5016273;28;20049;-76
2021/04/29 02:51:40;;;;;;;13.25;6.75;;;11.00;76.60;;;;;;5021436;28;20072;-76
2021/04/29 02:54:06;;;;;;;13.68;6.55;;;11.00;74.70;;;;;;5025780;28;20024;-76
2021/04/29 02:56:33;;;;;;;13.30;6.55;;;11.00;76.10;;;;;;5016894;28;20026;-76
2021/04/29 02:59:00;;;;;;;13.57;6.68;;;11.00;75.60;;;;;;5022380;28;20030;-77
2021/04/29 03:01:34;;;;;;;18.00;6.75;;;11.00;76.00;;;;;;5018150;28;20036;-77
2021/04/29 03:04:00;;;;;;;13.05;6.03;;;11.00;77.60;;;;;;5023829;28;20040;-77
2021/04/29 03:06:26;;;;;;;18.33;6.43;;;11.00;76.90;;;;;;5013353;28;20032;-76
2021/04/29 03:08:52;;;;;;;12.73;6.32;;;11.00;76.20;;;;;;5016950;28;20038;-77
2021/04/29 03:11:18;;;;;;;11.82;5.85;;;11.00;77.50;;;;;;5024460;28;20040;-77
2021/04/29 03:13:44;;;;;;;13.40;6.35;;;10.90;77.20;;;;;;5024373;28;20160;-77
2021/04/29 03:16:12;;;;;;;14.98;6.28;;;10.90;79.00;;;;;;4996730;28;20116;-77
2021/04/29 03:18:38;;;;;;;14.80;6.80;;;11.00;78.60;;;;;;5019827;28;20638;-77
2021/04/29 03:21:04;;;;;;;21.80;6.78;;;10.90;77.80;;;;;;5024191;28;20056;-77
2021/04/29 03:23:29;;;;;;;16.63;7.15;;;10.90;77.40;;;;;;5026598;28;20026;-77
2021/04/29 03:25:56;;;;;;;17.63;7.40;;;10.90;78.50;;;;;;5022676;28;20501;-77
2021/04/29 03:28:21;;;;;;;15.45;7.05;;;10.90;77.90;;;;;;5018558;28;20034;-76
2021/04/29 03:30:47;;;;;;;14.95;7.05;;;10.90;80.60;;;;;;5026931;28;20033;-76
2021/04/29 03:33:12;;;;;;;12.70;6.78;;;10.90;80.70;;;;;;5026114;28;20021;-76
2021/04/29 03:35:38;;;;;;;16.17;7.43;;;10.90;78.80;;;;;;5024845;28;20129;-77
2021/04/29 03:38:04;;;;;;;15.32;7.30;;;10.80;78.30;;;;;;5024310;28;20368;-76
2021/04/29 03:40:29;;;;;;;10.85;6.25;;;10.80;78.40;;;;;;5021257;28;20104;-76
2021/04/29 03:42:56;;;;;;;17.13;6.53;;;10.80;78.30;;;;;;5024319;28;20414;-77
2021/04/29 03:45:22;;;;;;;21.45;7.55;;;10.90;79.70;;;;;;5023085;28;20117;-76
2021/04/29 03:47:48;;;;;;;12.75;7.05;;;10.90;78.60;;;;;;5027338;28;20369;-77
2021/04/29 03:50:13;;;;;;;12.38;6.70;;;10.90;78.40;;;;;;5026611;28;20045;-77
2021/04/29 03:52:39;;;;;;;14.38;6.85;;;10.90;81.70;;;;;;5019800;28;20507;-77
2021/04/29 03:55:05;;;;;;;18.70;7.05;;;10.90;80.20;;;;;;5019028;28;20030;-77
2021/04/29 03:57:31;;;;;;;14.88;7.35;;;10.90;79.90;;;;;;5024936;28;20021;-76
2021/04/29 03:59:57;;;;;;;15.77;6.53;;;10.80;80.30;;;;;;5027554;28;20105;-77
2021/04/29 04:02:22;;;;;;;15.32;7.22;;;10.90;79.60;;;;;;5022245;28;20037;-77
2021/04/29 04:04:48;;;;;;;13.15;6.70;;;10.90;79.20;;;;;;5030183;28;20487;-76
2021/04/29 04:07:13;;;;;;;15.90;6.43;;;10.90;79.80;;;;;;5012852;28;20044;-76
2021/04/29 04:09:39;;;;;;;13.75;7.18;;;10.90;79.70;;;;;;5030168;28;20029;-77
2021/04/29 04:12:05;;;;;;;14.40;6.63;;;11.00;80.10;;;;;;5030073;28;20048;-77
2021/04/29 04:14:30;;;;;;;16.73;6.47;;;10.90;80.40;;;;;;5024547;28;20018;-76
2021/04/29 04:16:56;;;;;;;13.93;6.22;;;10.90;79.40;;;;;;5018300;28;20084;-76
2021/04/29 04:19:21;;;;;;;21.15;6.97;;;10.90;80.70;;;;;;5030199;28;20484;-76
2021/04/29 04:21:47;;;;;;;14.82;6.90;;;10.90;80.90;;;;;;5017638;28;20492;-76
2021/04/29 04:24:12;;;;;;;13.70;6.95;;;10.90;80.50;;;;;;5020712;28;20113;-76
2021/04/29 04:26:38;;;;;;;12.07;7.25;;;11.00;79.70;;;;;;5027198;28;20041;-77
2021/04/29 04:29:03;;;;;;;14.57;7.10;;;11.00;79.40;;;;;;5026413;28;20029;-76
2021/04/29 04:31:29;;;;;;;20.40;7.75;;;11.20;77.90;;;;;;5030606;28;20022;-76
2021/04/29 04:33:55;;;;;;;18.27;7.82;;;11.20;78.40;;;;;;5032231;28;20112;-77
2021/04/29 04:36:20;;;;;;;14.23;7.10;;;11.10;81.60;;;;;;5028739;28;20113;-76
2021/04/29 04:38:46;;;;;;;15.75;7.05;;;11.00;84.90;;;;;;5024455;28;20112;-76
2021/04/29 04:41:11;;;;;;;20.35;7.90;;;11.00;86.10;;;;;;5028931;28;20026;-76
2021/04/29 04:43:37;;;;;;;15.20;6.93;;;10.90;86.40;;;;;;5026668;28;20100;-77
2021/04/29 04:46:02;;;;;;;14.32;6.97;;;10.90;90.30;;;;;;5024459;28;20037;-77
2021/04/29 04:48:28;;;;;;;13.40;6.57;;;10.90;90.90;;;;;;5029803;28;20028;-77
2021/04/29 04:50:53;;;;;;;12.68;7.57;;;11.00;91.70;;;;;;5024600;28;20057;-77
2021/04/29 04:53:20;;;;;;;14.30;7.35;;;11.00;92.20;;;;;;5030143;28;20108;-73
2021/04/29 04:55:48;;;;;;;13.13;6.93;;;10.90;93.00;;;;;;5022632;28;20763;-78
2021/04/29 04:58:15;;;;;;;17.73;7.00;;;10.90;94.00;;;;;;5021746;28;20372;-76
2021/04/29 05:00:41;;;;;;;18.27;8.32;;;11.00;92.80;;;;;;5027225;28;20033;-77
2021/04/29 05:03:07;;;;;;;16.15;8.00;;;10.90;94.70;;;;;;5030482;28;20033;-76
2021/04/29 05:05:32;;;;;;;14.52;7.35;;;10.90;93.70;;;;;;5016942;28;20029;-76
2021/04/29 05:08:01;;;;;;;15.75;8.02;;;10.80;93.40;;;;;;5018527;28;20033;-76
2021/04/29 05:10:30;;;;;;;14.20;7.68;;;10.90;93.80;;;;;;5021903;28;20053;-77
2021/04/29 05:13:00;;;;;;;12.82;7.38;;;10.90;95.30;;;;;;5025272;28;20109;-75
2021/04/29 05:15:25;;;;;;;15.57;8.05;;;10.90;95.20;;;;;;5020940;28;20021;-77
2021/04/29 05:18:00;;;;;;;16.38;7.38;;;11.00;94.60;;;;;;5028635;28;20021;-75
2021/04/29 05:20:29;;;;;;;13.80;6.68;;;10.90;94.80;;;;;;5026793;28;20433;-76
2021/04/29 05:22:54;;;;;;;15.38;7.00;;;11.10;95.20;;;;;;5028253;28;20507;-76
2021/04/29 05:25:24;;;;;;;15.27;7.28;;;11.10;94.10;;;;;;5009209;28;20037;-76
2021/04/29 05:27:51;;;;;;;12.38;6.70;;;11.20;93.70;;;;;;5024428;28;20080;-76
2021/04/29 05:30:17;;;;;;;17.98;6.45;;;11.30;92.70;;;;;;5015779;28;20036;-77
2021/04/29 05:32:43;;;;;;;14.60;7.35;;;11.30;92.30;;;;;;5019836;28;20591;-77
2021/04/29 05:35:09;;;;;;;17.75;6.90;;;11.30;92.60;;;;;;5028157;28;20100;-77
2021/04/29 05:37:34;;;;;;;17.50;7.47;;;11.30;92.10;;;;;;5016326;28;20025;-78
2021/04/29 05:40:00;;;;;;;14.48;7.40;;;11.40;93.20;;;;;;5023501;28;20039;-76
2021/04/29 05:42:25;;;;;;;12.63;6.57;;;11.40;93.50;;;;;;5023879;28;20033;-77
2021/04/29 05:44:57;;;;;;;13.38;7.45;;;11.40;93.40;;;;;;5024714;28;20030;-76
2021/04/29 05:47:22;;;;;;;18.08;7.53;;;11.50;93.80;;;;;;5027108;28;20064;-76
2021/04/29 05:49:48;;;;;;;13.48;6.72;;;11.50;93.20;;;;;;5028093;28;20061;-76
2021/04/29 05:52:13;;;;;;;11.60;7.10;;;11.60;92.90;;;;;;5025271;28;20112;-76
2021/04/29 05:54:44;;;;;;;14.75;7.20;;;11.70;92.40;;;;;;5026186;28;20372;-76
2021/04/29 05:57:10;;;;;;;16.33;7.90;;;11.80;94.10;;;;;;5024443;28;20017;-75
2021/04/29 05:59:35;;;;;;;12.15;7.05;;;11.90;92.70;;;;;;5026390;28;20025;-75
2021/04/29 06:02:01;;;;;;;16.50;7.20;;;11.90;94.30;;;;;;5024490;28;20030;-75
2021/04/29 06:04:28;;;;;;;17.40;7.40;;;11.90;94.30;;;;;;5025293;28;20029;-76
2021/04/29 06:06:53;;;;;;;23.60;7.28;;;11.90;93.90;;;;;;5026851;28;20570;-78
2021/04/29 06:09:19;;;;;;;19.40;7.72;;;12.00;93.90;;;;;;5022219;28;20457;-77
2021/04/29 06:11:44;;;;;;;20.60;7.25;;;12.00;94.40;;;;;;5022466;28;20021;-77
2021/04/29 06:14:12;;;;;;;13.38;7.32;;;12.10;95.70;;;;;;5024365;28;20023;-77
2021/04/29 06:16:37;;;;;;;12.65;7.00;;;12.10;94.60;;;;;;5025690;28;20051;-77
2021/04/29 06:19:03;;;;;;;16.95;7.30;;;12.20;94.20;;;;;;5024286;28;20026;-77
2021/04/29 06:21:29;;;;;;;14.85;7.55;;;12.30;93.90;;;;;;5025443;28;20399;-77
2021/04/29 06:23:55;;;;;;;18.75;7.30;;;12.30;93.80;;;;;;5023386;28;20125;-77
2021/04/29 06:26:21;;;;;;;13.35;7.00;;;12.40;94.20;;;;;;5002631;28;20039;-76
2021/04/29 06:28:47;;;;;;;11.77;6.20;;;12.40;94.40;;;;;;5021774;28;20434;-74
2021/04/29 06:31:13;;;;;;;10.32;6.20;;;12.40;94.40;;;;;;5005303;28;20116;-73
2021/04/29 06:33:39;;;;;;;17.98;6.43;;;12.40;94.00;;;;;;5025965;28;20125;-73
2021/04/29 06:36:08;;;;;;;16.98;6.82;;;12.40;95.90;;;;;;5023237;28;20384;-73
2021/04/29 06:38:36;;;;;;;14.27;7.05;;;12.50;97.10;;;;;;5023650;28;20053;-74
2021/04/29 06:41:02;;;;;;;12.95;6.45;;;12.40;97.70;;;;;;5021462;28;20693;-74
2021/04/29 06:43:27;;;;;;;14.35;6.32;;;12.50;99.30;;;;;;5023097;28;20163;-74
2021/04/29 06:45:53;;;;;;;15.98;6.80;;;12.50;98.20;;;;;;5021171;28;20029;-74
2021/04/29 06:48:19;;;;;;;15.10;7.13;;;12.50;99.90;;;;;;5023702;28;20447;-74
2021/04/29 06:50:45;;;;;;;15.65;8.10;;;12.40;99.90;;;;;;5021995;28;20076;-74
2021/04/29 06:53:11;;;;;;;26.65;7.63;;;12.40;99.90;;;;;;5024005;28;20033;-74
2021/04/29 06:55:36;;;;;;;20.35;7.72;;;12.40;99.90;;;;;;5023382;28;20114;-79
2021/04/29 06:58:02;;;;;;;12.05;6.38;;;12.40;99.90;;;;;;5025728;28;20643;-74
2021/04/29 07:00:28;;;;;;;12.00;6.63;;;12.40;99.90;;;;;;5024688;28;20037;-75
2021/04/29 07:02:56;;;;;;;12.48;6.53;;;12.40;99.90;;;;;;5023368;28;20558;-74
2021/04/29 07:05:23;;;;;;;12.23;7.32;;;12.40;99.90;;;;;;5023775;28;20029;-73
2021/04/29 07:07:52;;;;;;;14.23;6.50;;;12.40;99.90;;;;;;5025087;28;20060;-75
2021/04/29 07:10:17;;;;;;;17.65;6.47;;;12.30;99.90;;;;;;5021340;28;20026;-74
2021/04/29 07:12:43;;;;;;;13.45;7.07;;;12.30;99.90;;;;;;5024783;28;20079;-75
2021/04/29 07:15:09;;;;;;;18.25;7.15;;;12.20;99.90;;;;;;5023084;28;20014;-75
2021/04/29 07:17:34;;;;;;;13.25;6.97;;;12.20;99.90;;;;;;5023542;28;20088;-73
2021/04/29 07:20:00;;;;;;;12.52;7.03;;;12.20;99.90;;;;;;5022882;28;20038;-75
2021/04/29 07:22:25;;;;;;;14.85;7.00;;;12.30;99.90;;;;;;5027065;28;21265;-73
2021/04/29 07:24:51;;;;;;;14.20;7.07;;;12.30;99.90;;;;;;5023067;28;20030;-75
2021/04/29 07:27:16;;;;;;;19.67;7.63;;;12.40;99.90;;;;;;5021881;28;20488;-75
2021/04/29 07:29:42;;;;;;;16.92;7.30;;;12.40;99.90;;;;;;4999014;28;20029;-78
2021/04/29 07:32:07;;;;;;;13.98;7.30;;;12.40;99.90;;;;;;5020076;28;20362;-77
2021/04/29 07:34:33;;;;;;;12.18;6.63;;;12.40;99.90;;;;;;5022533;28;20160;-80
2021/04/29 07:36:59;;;;;;;13.73;7.38;;;12.40;99.90;;;;;;5014610;28;20674;-79
2021/04/29 07:39:25;;;;;;;12.15;7.05;;;12.40;99.90;;;;;;5016596;28;20052;-78
2021/04/29 07:41:54;;;;;;;13.73;6.32;;;12.40;99.90;;;;;;5023275;28;20434;-79
2021/04/29 07:44:19;;;;;;;12.38;6.78;;;12.40;99.90;;;;;;5020559;28;20485;-81
2021/04/29 07:46:45;;;;;;;11.50;6.20;;;12.40;99.90;;;;;;5022030;28;20037;-77
2021/04/29 07:49:10;;;;;;;13.10;6.32;;;12.40;99.90;;;;;;5013914;28;20048;-73
2021/04/29 07:51:36;;;;;;;17.23;6.88;;;12.30;99.90;;;;;;5008702;28;20125;-76
2021/04/29 07:54:04;;;;;;;15.90;6.28;;;12.30;99.90;;;;;;5019664;28;20052;-73
2021/04/29 07:56:30;;;;;;;11.57;6.00;;;12.30;99.90;;;;;;5030434;28;20076;-74
2021/04/29 07:58:55;;;;;;;10.68;6.03;;;12.20;99.90;;;;;;5027959;28;20095;-75
2021/04/29 08:01:21;;;;;;;8.65;5.28;;;12.20;99.90;;;;;;5012698;28;20027;-77
2021/04/29 08:03:46;;;;;;;13.80;5.43;;;12.10;99.90;;;;;;5027190;28;20025;-76
2021/04/29 08:06:12;;;;;;;12.20;6.18;;;12.00;99.90;;;;;;5028315;28;20416;-77
2021/04/29 08:08:38;;;;;;;12.65;5.47;;;11.90;99.90;;;;;;5025545;28;20036;-76
2021/04/29 08:11:03;;;;;;;15.65;6.13;;;11.80;99.90;;;;;;5023023;28;20044;-76
2021/04/29 08:13:29;;;;;;;12.90;6.60;;;11.80;99.90;;;;;;5026630;28;20064;-77
2021/04/29 08:15:54;;;;;;;9.57;5.85;;;11.80;99.90;;;;;;5027201;28;20568;-76
2021/04/29 08:18:20;;;;;;;8.40;5.72;;;11.80;99.90;;;;;;5026605;28;20029;-77
2021/04/29 08:20:48;;;;;;;12.32;6.03;;;11.80;99.90;;;;;;5026629;28;20408;-75
2021/04/29 08:23:14;;;;;;;10.00;5.95;;;11.80;99.90;;;;;;5007385;28;20113;-77
2021/04/29 08:25:39;;;;;;;13.50;6.03;;;11.70;99.90;;;;;;5025838;28;20829;-77
2021/04/29 08:28:05;;;;;;;14.32;6.15;;;11.70;99.90;;;;;;5026805;28;20428;-76
2021/04/29 08:30:30;;;;;;;12.20;6.20;;;11.80;99.90;;;;;;5026342;28;20038;-78
2021/04/29 08:32:58;;;;;;;15.48;6.45;;;11.80;99.90;;;;;;5019176;28;20049;-77
2021/04/29 08:35:23;;;;;;;14.75;6.80;;;11.70;99.90;;;;;;5018187;28;20030;-78
2021/04/29 08:37:49;;;;;;;11.25;6.38;;;11.70;99.90;;;;;;5016493;28;20063;-75
2021/04/29 08:40:15;;;;;;;9.73;6.32;;;11.70;99.90;;;;;;5021962;28;20022;-74
2021/04/29 08:42:43;;;;;;;12.93;6.40;;;11.70;99.90;;;;;;5028724;28;20396;-74
2021/04/29 08:45:10;;;;;;;13.50;5.90;;;11.70;99.90;;;;;;5003283;28;20029;-75
2021/04/29 08:47:37;;;;;;;11.25;6.32;;;11.70;99.90;;;;;;5009616;28;20060;-75
2021/04/29 08:50:07;;;;;;;11.82;6.57;;;11.60;99.90;;;;;;5027362;28;20480;-75
2021/04/29 08:52:33;;;;;;;11.30;6.40;;;11.70;99.90;;;;;;5012931;28;20034;-75
2021/04/29 08:54:59;;;;;;;11.77;6.72;;;11.60;99.90;;;;;;5022497;28;20491;-75
2021/04/29 08:57:25;;;;;;;9.95;5.95;;;11.70;99.90;;;;;;5013375;28;20541;-75
2021/04/29 08:59:52;;;;;;;12.30;5.93;;;11.70;99.90;;;;;;5017432;28;20123;-75
2021/04/29 09:02:30;;;;;;;12.45;6.70;;;11.70;99.90;;;;;;5023609;28;20065;-75
2021/04/29 09:04:56;;;;;;;9.68;5.95;;;11.70;99.90;;;;;;5023982;28;20079;-75
2021/04/29 09:07:21;;;;;;;9.77;5.50;;;11.70;99.90;;;;;;5027357;28;20025;-74
2021/04/29 09:09:48;;;;;;;10.82;6.63;;;11.80;99.90;;;;;;5022927;28;20032;-75
2021/04/29 09:12:13;;;;;;;13.13;7.15;;;11.80;99.90;;;;;;5022571;28;20026;-75
2021/04/29 09:14:41;;;;;;;16.60;6.65;;;11.90;99.90;;;;;;5022568;28;20496;-75
2021/04/29 09:17:07;;;;;;;10.27;6.50;;;12.00;99.90;;;;;;5030430;28;20034;-74
2021/04/29 09:19:36;;;;;;;10.13;5.97;;;12.10;99.90;;;;;;5026705;28;20507;-74
2021/04/29 09:22:03;;;;;;;10.73;6.05;;;12.10;99.90;;;;;;5019002;28;20030;-75
2021/04/29 09:24:40;;;;;;;16.73;7.15;;;12.00;99.90;;;;;;5027289;28;20115;-76
2021/04/29 09:27:09;;;;;;;18.65;6.18;;;12.00;99.90;;;;;;5027871;28;20028;-76
2021/04/29 09:29:34;;;;;;;14.98;6.45;;;12.10;99.90;;;;;;5012832;28;20026;-76
2021/04/29 09:32:00;;;;;;;11.35;6.10;;;12.10;99.90;;;;;;5026266;28;20022;-76
2021/04/29 09:34:36;;;;;;;12.25;6.93;;;12.10;99.90;;;;;;5025847;28;20103;-75
2021/04/29 09:37:01;;;;;;;12.02;6.03;;;12.00;99.90;;;;;;5019746;28;20033;-75
2021/04/29 09:39:33;;;;;;;16.10;6.88;;;12.10;99.90;;;;;;5023326;28;20025;-77
2021/04/29 09:41:58;;;;;;;16.92;7.35;;;12.10;99.90;;;;;;5004379;28;20025;-77
2021/04/29 09:44:25;;;;;;;14.55;7.20;;;12.20;99.90;;;;;;5019814;28;20044;-78
2021/04/29 09:46:53;;;;;;;11.18;6.22;;;12.30;99.90;;;;;;5021044;28;20500;-78
2021/04/29 09:49:31;;;;;;;14.18;6.63;;;12.40;99.90;;;;;;5020346;28;20037;-78
2021/04/29 09:51:59;;;;;;;12.63;6.88;;;12.50;99.90;;;;;;5017532;28;20048;-77
2021/04/29 09:54:29;;;;;;;11.82;6.97;;;12.70;99.90;;;;;;5026945;28;21500;-77
2021/04/29 09:57:01;;;;;;;12.85;7.40;;;12.90;99.90;;;;;;5023947;28;20164;-77
2021/04/29 09:59:28;;;;;;;10.35;6.45;;;13.10;99.90;;;;;;5020325;28;20503;-77
2021/04/29 10:01:54;;;;;;;12.27;7.00;;;13.10;99.90;;;;;;5021642;28;20030;-77
2021/04/29 10:04:22;;;;;;;18.13;7.57;;;13.40;99.90;;;;;;5019187;28;20033;-77
2021/04/29 10:06:48;;;;;;;14.35;7.80;;;13.60;99.90;;;;;;5013742;28;20486;-77
2021/04/29 10:09:14;;;;;;;16.35;7.30;;;13.70;99.90;;;;;;5021423;28;20105;-77
2021/04/29 10:11:44;;;;;;;14.63;7.90;;;13.90;99.90;;;;;;5024236;28;20079;-78
2021/04/29 10:14:11;;;;;;;14.77;7.40;;;14.00;99.90;;;;;;5022833;28;20380;-77
2021/04/29 10:16:37;;;;;;;14.77;7.68;;;14.00;99.90;;;;;;5019398;28;20048;-78
2021/04/29 10:19:06;;;;;;;11.02;7.38;;;14.30;99.90;;;;;;5023648;28;20523;-78
2021/04/29 10:21:33;;;;;;;15.43;8.93;;;14.50;99.90;;;;;;5020562;28;20552;-77
2021/04/29 10:23:58;;;;;;;14.68;8.57;;;14.50;99.90;;;;;;5026557;28;20068;-77
2021/04/29 10:26:25;;;;;;;19.63;9.13;;;14.50;99.90;;;;;;5021458;28;20054;-78
2021/04/29 10:28:57;;;;;;;14.27;8.75;;;14.50;99.90;;;;;;5020865;28;20055;-77
2021/04/29 10:31:25;;;;;;;15.32;8.73;;;14.40;99.90;;;;;;5023267;28;20149;-77
2021/04/29 10:34:18;;;;;;;14.55;8.30;;;14.30;99.90;;;;;;5026076;28;20519;-75
2021/04/29 10:36:46;;;;;;;16.35;9.30;;;14.30;99.90;;;;;;5023254;28;20116;-77
2021/04/29 10:39:14;;;;;;;17.83;8.43;;;14.10;99.90;;;;;;5025484;28;20104;-81
2021/04/29 10:41:41;;;;;;;21.23;8.95;;;14.10;99.90;;;;;;5026765;28;20037;-78
2021/04/29 10:44:19;;;;;;;16.60;9.90;;;13.90;99.90;;;;;;5021824;28;20117;-77
2021/04/29 10:46:47;;;;;;;19.50;9.05;;;14.10;99.90;;;;;;5025771;28;20037;-77
2021/04/29 10:49:15;;;;;;;18.25;9.80;;;14.40;99.90;;;;;;5022188;28;21545;-77
2021/04/29 10:51:46;;;;;;;17.73;9.35;;;14.60;99.90;;;;;;5021367;28;20371;-77
2021/04/29 10:54:23;;;;;;;14.82;8.88;;;14.60;99.90;;;;;;5020906;28;20021;-77
2021/04/29 10:57:19;;;;;;;18.20;9.93;;;14.90;99.90;;;;;;5023049;28;20033;-77
2021/04/29 10:59:50;;;;;;;19.55;9.82;;;15.20;99.90;;;;;;4997427;28;20029;-77
2021/04/29 11:02:36;;;;;;;15.60;8.70;;;15.40;99.90;;;;;;5023767;28;20060;-77
2021/04/29 11:05:05;;;;;;;19.50;10.30;;;15.70;99.90;;;;;;5019758;28;20025;-77
2021/04/29 11:07:31;;;;;;;18.80;9.75;;;16.00;99.90;;;;;;5023428;28;20108;-77
2021/04/29 11:10:00;;;;;;;21.67;10.38;;;15.90;99.90;;;;;;5025110;28;20516;-77
2021/04/29 11:12:45;;;;;;;26.00;10.30;;;15.80;99.90;;;;;;5024185;28;20025;-77
2021/04/29 11:15:30;;;;;;;18.30;10.23;;;15.50;99.90;;;;;;5017399;28;20022;-77
2021/04/29 11:18:09;;;;;;;18.95;10.00;;;15.50;99.90;;;;;;5023754;28;20029;-77
2021/04/29 11:20:56;;;;;;;16.17;9.05;;;15.60;99.90;;;;;;5018900;28;20034;-78
2021/04/29 11:23:40;;;;;;;17.77;9.95;;;15.50;99.90;;;;;;5015400;28;20034;-77
2021/04/29 11:26:10;;;;;;;17.52;9.40;;;15.50;99.90;;;;;;5026013;28;20504;-77
2021/04/29 11:28:37;;;;;;;20.70;8.82;;;16.00;99.90;;;;;;5025788;28;20029;-77
2021/04/29 11:31:03;;;;;;;15.32;9.02;;;16.60;99.90;;;;;;5022092;28;20480;-77
2021/04/29 11:33:38;;;;;;;18.15;9.48;;;16.80;99.90;;;;;;5022550;28;20068;-77
2021/04/29 11:36:21;;;;;;;16.23;8.70;;;16.90;99.60;;;;;;5028249;28;20021;-77
2021/04/29 11:38:49;;;;;;;15.73;8.57;;;17.20;99.30;;;;;;5022863;28;20101;-77
2021/04/29 11:41:15;;;;;;;18.67;10.27;;;17.60;96.40;;;;;;5017584;28;20033;-77
2021/04/29 11:43:40;;;;;;;17.13;9.05;;;18.10;96.60;;;;;;5020999;28;20109;-77
2021/04/29 11:46:06;;;;;;;16.27;9.02;;;18.70;92.30;;;;;;5020076;28;20443;-78
2021/04/29 11:48:33;;;;;;;20.15;9.57;;;19.00;89.10;;;;;;5022648;28;20469;-77
2021/04/29 11:50:59;;;;;;;16.48;9.43;;;18.60;90.50;;;;;;5023962;28;20045;-77
2021/04/29 11:53:30;;;;;;;17.05;9.52;;;18.50;90.00;;;;;;5021715;28;20029;-77
2021/04/29 11:56:00;;;;;;;15.07;9.02;;;18.20;89.60;;;;;;5028277;28;20065;-77
2021/04/29 11:58:26;;;;;;;17.60;8.98;;;17.50;90.60;;;;;;5023631;28;20049;-77
2021/04/29 12:00:54;;;;;;;16.50;9.68;;;17.00;92.90;;;;;;5007766;28;20109;-77
2021/04/29 12:03:22;;;;;;;18.17;10.45;;;16.50;94.60;;;;;;5027764;28;20038;-77
2021/04/29 12:05:48;;;;;;;17.65;9.00;;;16.30;96.00;;;;;;5019527;28;20033;-77
2021/04/29 12:08:22;;;;;;;15.52;8.63;;;16.90;94.50;;;;;;5025573;28;20049;-77
2021/04/29 12:10:49;;;;;;;21.88;8.98;;;17.40;93.80;;;;;;5030517;28;20025;-77
2021/04/29 12:13:16;;;;;;;15.23;8.20;;;17.70;91.40;;;;;;5021882;28;20029;-77
2021/04/29 12:15:42;;;;;;;14.57;8.45;;;18.10;91.50;;;;;;5024715;28;20029;-77
2021/04/29 12:18:12;;;;;;;17.58;8.13;;;18.80;86.40;;;;;;5024149;28;20172;-78
2021/04/29 12:20:39;;;;;;;13.40;7.88;;;19.50;83.80;;;;;;5030426;28;20061;-77
2021/04/29 12:23:08;;;;;;;16.77;7.85;;;19.70;79.60;;;;;;5018817;28;20068;-77
2021/04/29 12:25:33;;;;;;;13.00;8.45;;;19.40;79.20;;;;;;5028755;28;20080;-78
2021/04/29 12:27:59;;;;;;;14.98;8.85;;;19.30;78.20;;;;;;5017622;28;20053;-77
2021/04/29 12:30:27;;;;;;;12.85;8.23;;;18.80;78.60;;;;;;5019566;28;20033;-76
2021/04/29 12:32:53;;;;;;;15.13;8.55;;;18.60;82.80;;;;;;5016417;28;20678;-74
2021/04/29 12:35:35;;;;;;;14.77;8.55;;;18.60;80.70;;;;;;5027569;28;20114;-74
2021/04/29 12:38:01;;;;;;;12.15;7.47;;;18.50;80.80;;;;;;5028497;28;20034;-74